Time;durP1;ratioP1;P1;durP2;ratioP2;P2;SDS_P1;SDS_P2;PMS_P1;PMS_P2;Temp;Humidity;BMP_temperature;BMP_pressure;BME280_temperature;BME280_humidity;BME280_pressure;Samples;Min_cycle;Max_cycle;Signal;HPM_P1;HPM_P2
2022/10/15 00:01:48;;;;;;;6.05;4.93;;;;;;;;;;5033838;28;20047;-81
2022/10/15 00:04:14;;;;;;;5.32;3.83;;;;;;;;;;5031854;28;20030;-81
2022/10/15 00:06:39;;;;;;;5.80;4.70;;;;;;;;;;5032141;28;20475;-81
2022/10/15 00:09:04;;;;;;;4.68;4.25;;;;;;;;;;5031882;28;20091;-82
2022/10/15 00:11:31;;;;;;;4.85;4.30;;;;;;;;;;5033203;28;20053;-81
2022/10/15 00:13:58;;;;;;;6.28;4.45;;;;;;;;;;5033257;28;20030;-82
2022/10/15 00:16:26;;;;;;;4.88;4.35;;;;;;;;;;5031851;28;20420;-82
2022/10/15 00:18:54;;;;;;;6.65;4.15;;;;;;;;;;5032132;28;20146;-81
2022/10/15 00:21:20;;;;;;;5.07;4.45;;;;;;;;;;5032066;28;20036;-82
2022/10/15 00:23:46;;;;;;;5.45;4.20;;;;;;;;;;5032120;28;20104;-81
2022/10/15 00:26:17;;;;;;;6.13;4.35;;;;;;;;;;5031751;28;20531;-81
2022/10/15 00:28:42;;;;;;;4.80;4.10;;;;;;;;;;5031853;28;20446;-81
2022/10/15 00:31:11;;;;;;;5.38;4.32;;;;;;;;;;5033100;28;20037;-81
2022/10/15 00:33:37;;;;;;;5.82;4.65;;;;;;;;;;5033113;28;20365;-81
2022/10/15 00:36:12;;;;;;;5.10;4.50;;;;;;;;;;5031656;28;20026;-80
2022/10/15 00:38:37;;;;;;;5.40;4.35;;;;;;;;;;5015228;28;20131;-81
2022/10/15 00:41:05;;;;;;;5.15;4.15;;;;;;;;;;5031906;28;20116;-82
2022/10/15 00:43:43;;;;;;;9.30;4.50;;;;;;;;;;5031810;28;20025;-81
2022/10/15 00:46:15;;;;;;;6.22;4.20;;;;;;;;;;5033229;28;20057;-81
2022/10/15 00:48:40;;;;;;;10.13;4.57;;;;;;;;;;5033195;28;20183;-82
2022/10/15 00:51:06;;;;;;;5.15;4.00;;;;;;;;;;5018403;28;20033;-81
2022/10/15 00:53:31;;;;;;;5.85;4.55;;;;;;;;;;5036280;28;20049;-81
2022/10/15 00:55:57;;;;;;;6.20;4.70;;;;;;;;;;5002720;28;20036;-81
2022/10/15 00:58:27;;;;;;;7.00;4.57;;;;;;;;;;5018800;28;20045;-81
2022/10/15 01:00:53;;;;;;;6.22;4.45;;;;;;;;;;5035240;28;20376;-81
2022/10/15 01:03:19;;;;;;;5.53;4.78;;;;;;;;;;5018622;28;20026;-81
2022/10/15 01:05:46;;;;;;;6.35;5.20;;;;;;;;;;5018781;28;20109;-81
2022/10/15 01:08:12;;;;;;;6.50;4.60;;;;;;;;;;5019058;28;20120;-81
2022/10/15 01:10:53;;;;;;;7.10;4.97;;;;;;;;;;5035421;28;20535;-81
2022/10/15 01:13:35;;;;;;;6.50;4.53;;;;;;;;;;5034989;28;20022;-81
2022/10/15 01:16:09;;;;;;;7.22;5.15;;;;;;;;;;5035183;28;20029;-81
2022/10/15 01:18:56;;;;;;;6.30;5.25;;;;;;;;;;5035089;28;20025;-81
2022/10/15 01:21:34;;;;;;;8.63;6.22;;;;;;;;;;5034770;28;20083;-81
2022/10/15 01:24:10;;;;;;;7.10;5.18;;;;;;;;;;5018406;28;20021;-81
2022/10/15 01:27:13;;;;;;;6.70;5.18;;;;;;;;;;5035045;28;20031;-82
2022/10/15 01:30:03;;;;;;;6.68;5.15;;;;;;;;;;5035888;28;20032;-81
2022/10/15 01:32:35;;;;;;;9.93;5.45;;;;;;;;;;5036234;28;20499;-82
2022/10/15 01:35:25;;;;;;;7.95;5.22;;;;;;;;;;5018135;28;20057;-82
2022/10/15 01:37:54;;;;;;;9.30;5.57;;;;;;;;;;5034674;28;20042;-81
2022/10/15 01:40:26;;;;;;;7.45;5.13;;;;;;;;;;5035746;28;20025;-82
2022/10/15 01:43:41;;;;;;;7.43;5.32;;;;;;;;;;5034438;28;20022;-81
2022/10/15 01:46:20;;;;;;;7.03;5.63;;;;;;;;;;5016647;28;20038;-81
2022/10/15 01:48:46;;;;;;;8.98;5.97;;;;;;;;;;5034370;28;20033;-82
2022/10/15 01:51:13;;;;;;;8.00;5.47;;;;;;;;;;5034398;28;20064;-82
2022/10/15 01:53:39;;;;;;;7.35;5.68;;;;;;;;;;5033991;28;20049;-82
2022/10/15 01:56:09;;;;;;;9.77;5.70;;;;;;;;;;5035454;28;20021;-81
2022/10/15 01:58:37;;;;;;;9.27;6.22;;;;;;;;;;5035447;28;20029;-82
2022/10/15 02:01:03;;;;;;;8.57;5.72;;;;;;;;;;5017221;28;20399;-83
2022/10/15 02:03:28;;;;;;;10.02;6.43;;;;;;;;;;5050014;28;20029;-82
2022/10/15 02:06:07;;;;;;;9.25;6.53;;;;;;;;;;5035415;28;20030;-82
2022/10/15 02:09:11;;;;;;;7.53;6.10;;;;;;;;;;5034161;28;20044;-81
2022/10/15 02:12:06;;;;;;;10.40;6.65;;;;;;;;;;5015980;28;20049;-82
2022/10/15 02:14:40;;;;;;;;;;;;;;;;;;5034041;28;20044;-80
2022/10/15 02:17:08;;;;;;;9.23;6.05;;;;;;;;;;5035277;28;19909;-82
2022/10/15 02:19:44;;;;;;;9.77;6.53;;;;;;;;;;5033970;28;20025;-81
2022/10/15 02:22:18;;;;;;;9.13;6.30;;;;;;;;;;5034183;28;20067;-81
2022/10/15 02:24:52;;;;;;;10.15;6.97;;;;;;;;;;5034065;28;20362;-81
2022/10/15 02:27:19;;;;;;;10.30;6.53;;;;;;;;;;5033882;28;20113;-82
2022/10/15 02:29:46;;;;;;;10.30;6.53;;;;;;;;;;5033798;28;20029;-81
2022/10/15 02:32:12;;;;;;;11.55;6.95;;;;;;;;;;5017446;28;20076;-82
2022/10/15 02:34:38;;;;;;;10.50;6.88;;;;;;;;;;5033438;28;20408;-81
2022/10/15 02:37:04;;;;;;;9.20;6.55;;;;;;;;;;5033541;28;20026;-81
2022/10/15 02:39:30;;;;;;;9.93;7.13;;;;;;;;;;5033433;28;20037;-81
2022/10/15 02:41:56;;;;;;;9.55;6.88;;;;;;;;;;5016876;28;20495;-81
2022/10/15 02:44:21;;;;;;;12.75;7.10;;;;;;;;;;5034985;28;20040;-82
2022/10/15 02:46:47;;;;;;;11.82;7.07;;;;;;;;;;5016807;28;20124;-81
2022/10/15 02:49:12;;;;;;;8.65;6.28;;;;;;;;;;5033557;28;20060;-81
2022/10/15 02:51:37;;;;;;;12.52;7.70;;;;;;;;;;5034658;28;20033;-81
2022/10/15 02:54:06;;;;;;;10.73;6.65;;;;;;;;;;5032882;28;20451;-81
2022/10/15 02:56:32;;;;;;;8.68;6.50;;;;;;;;;;5033444;28;20031;-81
2022/10/15 02:58:57;;;;;;;9.50;6.88;;;;;;;;;;5034346;28;20112;-81
2022/10/15 03:01:23;;;;;;;9.90;7.10;;;;;;;;;;5033043;28;20044;-81
2022/10/15 03:03:48;;;;;;;10.27;6.97;;;;;;;;;;5034509;28;20044;-81
2022/10/15 03:06:14;;;;;;;14.00;7.70;;;;;;;;;;5034381;28;20356;-81
2022/10/15 03:08:41;;;;;;;12.35;7.53;;;;;;;;;;5032831;28;20167;-81
2022/10/15 03:11:07;;;;;;;11.18;7.50;;;;;;;;;;5034318;28;20438;-82
2022/10/15 03:13:35;;;;;;;11.63;7.65;;;;;;;;;;5033758;28;20109;-82
2022/10/15 03:16:04;;;;;;;12.98;7.78;;;;;;;;;;5032734;28;20032;-82
2022/10/15 03:18:29;;;;;;;11.50;7.53;;;;;;;;;;5033295;28;20029;-81
2022/10/15 03:20:55;;;;;;;12.35;7.95;;;;;;;;;;5034186;28;20036;-82
2022/10/15 03:23:21;;;;;;;13.82;8.40;;;;;;;;;;5032602;28;20108;-81
2022/10/15 03:25:46;;;;;;;14.25;8.30;;;;;;;;;;5032867;28;20029;-82
2022/10/15 03:28:12;;;;;;;11.30;7.32;;;;;;;;;;5032429;28;20040;-81
2022/10/15 03:30:37;;;;;;;14.23;8.32;;;;;;;;;;5032337;28;20029;-82
2022/10/15 03:33:03;;;;;;;13.80;8.60;;;;;;;;;;5032625;28;20484;-82
2022/10/15 03:35:28;;;;;;;13.32;8.02;;;;;;;;;;5032389;28;20029;-81
2022/10/15 03:37:53;;;;;;;11.98;8.25;;;;;;;;;;5028863;28;20030;-81
2022/10/15 03:40:19;;;;;;;13.77;7.85;;;;;;;;;;4996162;28;20061;-82
2022/10/15 03:42:49;;;;;;;11.65;7.95;;;;;;;;;;4996319;28;20030;-82
2022/10/15 03:45:15;;;;;;;11.32;7.60;;;;;;;;;;4996145;28;20033;-81
2022/10/15 03:47:40;;;;;;;13.32;8.80;;;;;;;;;;5012857;28;20030;-82
2022/10/15 03:50:06;;;;;;;13.88;8.27;;;;;;;;;;5013951;28;20481;-82
2022/10/15 03:52:31;;;;;;;11.90;8.23;;;;;;;;;;5013475;28;20026;-81
2022/10/15 03:54:56;;;;;;;13.77;8.57;;;;;;;;;;5012269;28;20057;-81
2022/10/15 03:57:22;;;;;;;11.82;8.10;;;;;;;;;;5012230;28;20374;-82
2022/10/15 03:59:47;;;;;;;12.75;8.15;;;;;;;;;;4979772;28;20034;-82
2022/10/15 04:02:12;;;;;;;11.18;7.75;;;;;;;;;;5012351;28;20030;-81
2022/10/15 04:04:38;;;;;;;12.82;7.68;;;;;;;;;;5012480;28;20113;-81
2022/10/15 04:07:03;;;;;;;11.65;8.00;;;;;;;;;;5012090;28;20029;-82
2022/10/15 04:09:28;;;;;;;10.93;7.80;;;;;;;;;;5013451;28;20040;-81
2022/10/15 04:11:54;;;;;;;12.10;7.72;;;;;;;;;;5013635;28;20041;-81
2022/10/15 04:14:19;;;;;;;10.95;7.70;;;;;;;;;;5012005;28;20057;-81
2022/10/15 04:16:45;;;;;;;10.68;7.68;;;;;;;;;;5013891;28;20532;-82
2022/10/15 04:19:10;;;;;;;10.98;7.82;;;;;;;;;;5013520;28;20096;-82
2022/10/15 04:21:35;;;;;;;11.13;7.55;;;;;;;;;;5013288;28;20034;-82
2022/10/15 04:24:00;;;;;;;15.73;8.38;;;;;;;;;;5013273;28;20037;-81
2022/10/15 04:26:26;;;;;;;10.38;7.20;;;;;;;;;;4998791;28;20030;-81
2022/10/15 04:28:51;;;;;;;9.82;7.15;;;;;;;;;;4999655;28;20068;-81
2022/10/15 04:31:17;;;;;;;11.30;7.80;;;;;;;;;;4983379;28;20034;-82
2022/10/15 04:33:42;;;;;;;12.20;7.85;;;;;;;;;;5017724;28;20033;-82
2022/10/15 04:36:11;;;;;;;11.13;7.50;;;;;;;;;;4999827;28;20029;-81
2022/10/15 04:38:37;;;;;;;10.35;7.63;;;;;;;;;;4999916;28;20032;-81
2022/10/15 04:41:05;;;;;;;17.70;7.97;;;;;;;;;;5016322;28;20025;-80
2022/10/15 04:43:31;;;;;;;10.80;7.50;;;;;;;;;;5016085;28;20527;-82
2022/10/15 04:46:01;;;;;;;9.02;6.78;;;;;;;;;;5017347;28;20030;-81
2022/10/15 04:48:28;;;;;;;11.88;7.20;;;;;;;;;;4999690;28;20029;-81
2022/10/15 04:50:54;;;;;;;9.98;7.05;;;;;;;;;;5016085;28;20125;-82
2022/10/15 04:53:19;;;;;;;9.23;6.78;;;;;;;;;;4999350;28;20137;-81
2022/10/15 04:55:45;;;;;;;10.23;6.97;;;;;;;;;;5017414;28;20461;-81
2022/10/15 04:58:10;;;;;;;10.95;6.70;;;;;;;;;;5016030;28;20038;-81
2022/10/15 05:00:35;;;;;;;8.40;6.70;;;;;;;;;;5017633;28;20040;-81
2022/10/15 05:03:01;;;;;;;10.32;6.70;;;;;;;;;;5001030;28;20388;-80
2022/10/15 05:05:26;;;;;;;13.90;7.60;;;;;;;;;;4999998;28;20121;-81
2022/10/15 05:07:51;;;;;;;11.75;6.85;;;;;;;;;;4984722;28;20037;-81
2022/10/15 05:10:17;;;;;;;9.55;7.25;;;;;;;;;;5018578;28;20037;-81
2022/10/15 05:12:42;;;;;;;10.23;7.40;;;;;;;;;;5016314;28;20034;-82
2022/10/15 05:15:08;;;;;;;8.73;6.50;;;;;;;;;;5018044;28;20042;-81
2022/10/15 05:17:33;;;;;;;10.35;7.40;;;;;;;;;;5000717;28;20030;-81
2022/10/15 05:19:59;;;;;;;10.45;7.43;;;;;;;;;;5000093;28;20481;-81
2022/10/15 05:22:24;;;;;;;12.30;6.72;;;;;;;;;;5016620;28;20120;-81
2022/10/15 05:24:50;;;;;;;12.77;6.78;;;;;;;;;;5016081;28;20033;-81
2022/10/15 05:27:15;;;;;;;11.90;7.07;;;;;;;;;;5016980;28;20030;-81
2022/10/15 05:29:40;;;;;;;9.90;6.88;;;;;;;;;;5017207;28;20034;-81
2022/10/15 05:32:06;;;;;;;11.65;7.60;;;;;;;;;;5016798;28;20465;-81
2022/10/15 05:34:32;;;;;;;8.82;6.75;;;;;;;;;;5017553;28;20040;-81
2022/10/15 05:36:58;;;;;;;9.52;6.80;;;;;;;;;;5016192;28;20030;-82
2022/10/15 05:39:23;;;;;;;12.75;7.07;;;;;;;;;;5017680;28;20041;-82
2022/10/15 05:41:48;;;;;;;8.27;6.35;;;;;;;;;;5016362;28;20054;-81
2022/10/15 05:44:14;;;;;;;8.30;6.57;;;;;;;;;;5015987;28;20029;-81
2022/10/15 05:46:39;;;;;;;10.32;7.07;;;;;;;;;;4999264;28;20029;-82
2022/10/15 05:49:05;;;;;;;21.23;7.20;;;;;;;;;;5016687;28;20381;-81
2022/10/15 05:51:30;;;;;;;8.57;6.80;;;;;;;;;;5016620;28;20037;-81
2022/10/15 05:53:56;;;;;;;15.13;7.47;;;;;;;;;;5015420;28;20050;-81
2022/10/15 05:56:22;;;;;;;8.10;6.85;;;;;;;;;;5016998;28;20049;-81
2022/10/15 05:58:47;;;;;;;12.23;7.53;;;;;;;;;;5016852;28;20392;-80
2022/10/15 06:01:13;;;;;;;10.30;7.75;;;;;;;;;;4998489;28;20048;-81
2022/10/15 06:03:40;;;;;;;11.80;8.02;;;;;;;;;;5016117;28;20034;-81
2022/10/15 06:06:32;;;;;;;10.60;8.07;;;;;;;;;;4998893;28;20025;-81
2022/10/15 06:09:00;;;;;;;12.15;8.40;;;;;;;;;;5016171;28;20069;-80
2022/10/15 06:11:26;;;;;;;12.60;8.07;;;;;;;;;;5016650;28;20022;-81
2022/10/15 06:13:51;;;;;;;11.90;8.45;;;;;;;;;;5016549;28;20056;-80
2022/10/15 06:16:17;;;;;;;11.82;8.40;;;;;;;;;;5015370;28;20081;-79
2022/10/15 06:18:42;;;;;;;12.63;9.25;;;;;;;;;;5015520;28;20022;-79
2022/10/15 06:21:08;;;;;;;12.68;9.07;;;;;;;;;;5015694;28;20034;-80
2022/10/15 06:23:34;;;;;;;13.57;9.35;;;;;;;;;;5000049;28;20551;-79
2022/10/15 06:26:04;;;;;;;13.23;10.23;;;;;;;;;;5016385;28;20030;-78
2022/10/15 06:28:30;;;;;;;13.38;10.15;;;;;;;;;;5016639;28;20117;-80
2022/10/15 06:30:57;;;;;;;13.30;10.32;;;;;;;;;;5017125;28;20068;-80
2022/10/15 06:33:23;;;;;;;15.82;10.18;;;;;;;;;;4998402;28;20025;-80
2022/10/15 06:35:48;;;;;;;16.02;10.40;;;;;;;;;;5014639;28;20038;-81
2022/10/15 06:38:14;;;;;;;15.15;11.18;;;;;;;;;;5014956;28;20038;-80
2022/10/15 06:40:39;;;;;;;16.10;11.38;;;;;;;;;;4999441;28;20026;-81
2022/10/15 06:43:09;;;;;;;18.52;10.70;;;;;;;;;;5017057;28;20488;-81
2022/10/15 06:45:37;;;;;;;17.05;10.43;;;;;;;;;;5017051;28;20034;-81
2022/10/15 06:48:05;;;;;;;18.45;11.05;;;;;;;;;;5014889;28;20113;-82
2022/10/15 06:50:32;;;;;;;15.93;10.77;;;;;;;;;;5015903;28;20045;-81
2022/10/15 06:52:57;;;;;;;15.73;11.20;;;;;;;;;;5014414;28;20488;-81
2022/10/15 06:55:23;;;;;;;16.63;11.10;;;;;;;;;;5014277;28;20072;-80
2022/10/15 06:57:49;;;;;;;21.40;11.00;;;;;;;;;;5016235;28;20138;-81
2022/10/15 07:00:15;;;;;;;17.42;10.32;;;;;;;;;;5014840;28;20104;-80
2022/10/15 07:02:40;;;;;;;33.13;11.52;;;;;;;;;;5015294;28;20436;-80
2022/10/15 07:05:06;;;;;;;26.45;11.90;;;;;;;;;;5014724;28;20061;-80
2022/10/15 07:07:32;;;;;;;22.73;11.65;;;;;;;;;;5014067;28;20050;-79
2022/10/15 07:09:57;;;;;;;19.65;11.05;;;;;;;;;;5014080;28;20054;-80
2022/10/15 07:12:22;;;;;;;27.25;11.55;;;;;;;;;;5014548;28;20034;-79
2022/10/15 07:14:48;;;;;;;22.30;10.73;;;;;;;;;;5015880;28;20038;-79
2022/10/15 07:17:14;;;;;;;28.98;11.68;;;;;;;;;;5014944;28;20029;-80
2022/10/15 07:19:42;;;;;;;27.77;11.25;;;;;;;;;;5014255;28;20528;-80
2022/10/15 07:22:08;;;;;;;22.73;11.13;;;;;;;;;;5013252;28;20025;-81
2022/10/15 07:24:34;;;;;;;21.77;10.95;;;;;;;;;;5013157;28;20377;-81
2022/10/15 07:26:59;;;;;;;21.08;9.85;;;;;;;;;;5013825;28;20052;-82
2022/10/15 07:29:24;;;;;;;17.50;10.15;;;;;;;;;;5014167;28;20480;-81
2022/10/15 07:31:50;;;;;;;23.08;10.02;;;;;;;;;;5014186;28;20038;-81
2022/10/15 07:34:15;;;;;;;23.25;11.02;;;;;;;;;;5012990;28;20026;-81
2022/10/15 07:36:40;;;;;;;16.70;10.95;;;;;;;;;;5013177;28;20042;-80
2022/10/15 07:39:06;;;;;;;18.80;9.07;;;;;;;;;;5012894;28;20036;-81
2022/10/15 07:41:31;;;;;;;17.27;10.00;;;;;;;;;;5014103;28;20436;-81
2022/10/15 07:43:57;;;;;;;19.08;9.85;;;;;;;;;;5012857;28;20028;-82
2022/10/15 07:46:22;;;;;;;15.00;9.32;;;;;;;;;;4996455;28;20033;-81
2022/10/15 07:48:47;;;;;;;16.92;10.25;;;;;;;;;;5012761;28;20386;-81
2022/10/15 07:51:13;;;;;;;20.80;9.70;;;;;;;;;;5012479;28;20033;-80
2022/10/15 07:53:38;;;;;;;20.75;10.43;;;;;;;;;;5012176;28;20404;-81
2022/10/15 07:56:06;;;;;;;25.23;10.73;;;;;;;;;;5014125;28;20026;-81
2022/10/15 07:58:33;;;;;;;18.08;9.80;;;;;;;;;;4996515;28;20026;-82
2022/10/15 08:01:02;;;;;;;15.95;10.02;;;;;;;;;;4995517;28;20048;-81
2022/10/15 08:03:29;;;;;;;23.88;10.80;;;;;;;;;;4996134;28;20033;-81
2022/10/15 08:05:54;;;;;;;23.38;11.10;;;;;;;;;;5012572;28;20022;-81
2022/10/15 08:08:21;;;;;;;17.02;10.48;;;;;;;;;;5012809;28;20033;-81
2022/10/15 08:10:46;;;;;;;18.75;10.27;;;;;;;;;;5012628;28;20522;-81
2022/10/15 08:13:12;;;;;;;15.57;9.73;;;;;;;;;;5012554;28;20109;-82
2022/10/15 08:15:39;;;;;;;21.15;9.73;;;;;;;;;;5012709;28;20037;-82
2022/10/15 08:18:05;;;;;;;16.83;9.88;;;;;;;;;;4995723;28;20025;-81
2022/10/15 08:20:30;;;;;;;18.20;9.00;;;;;;;;;;4996072;28;20079;-81
2022/10/15 08:22:56;;;;;;;14.20;9.00;;;;;;;;;;5013798;28;20026;-81
2022/10/15 08:25:21;;;;;;;16.55;9.98;;;;;;;;;;5013588;28;20030;-81
2022/10/15 08:27:47;;;;;;;15.25;8.95;;;;;;;;;;5012484;28;20101;-81
2022/10/15 08:30:12;;;;;;;12.70;8.60;;;;;;;;;;5012303;28;20030;-81
2022/10/15 08:32:38;;;;;;;13.05;8.57;;;;;;;;;;5016119;28;20111;-81
2022/10/15 08:35:07;;;;;;;17.92;8.23;;;;;;;;;;5012273;28;20030;-83
2022/10/15 08:37:32;;;;;;;13.70;8.60;;;;;;;;;;5013847;28;20030;-80
2022/10/15 08:39:57;;;;;;;17.77;8.27;;;;;;;;;;5013804;28;20032;-80
2022/10/15 08:42:35;;;;;;;15.32;7.88;;;;;;;;;;5012642;28;20040;-80
2022/10/15 08:45:11;;;;;;;15.07;7.50;;;;;;;;;;5013434;28;20041;-81
2022/10/15 08:47:42;;;;;;;11.23;7.45;;;;;;;;;;5013169;28;20036;-80
2022/10/15 08:50:40;;;;;;;14.77;7.72;;;;;;;;;;5012998;28;20080;-80
2022/10/15 08:53:14;;;;;;;11.02;7.40;;;;;;;;;;5011595;28;20038;-80
2022/10/15 08:55:42;;;;;;;12.73;7.65;;;;;;;;;;5012337;28;20022;-80
2022/10/15 08:58:22;;;;;;;10.38;7.15;;;;;;;;;;4996211;28;20120;-80
2022/10/15 09:00:51;;;;;;;10.23;7.03;;;;;;;;;;5012091;28;20100;-80
2022/10/15 09:03:32;;;;;;;12.77;7.35;;;;;;;;;;5012067;28;20022;-80
2022/10/15 09:06:09;;;;;;;10.85;7.20;;;;;;;;;;5012290;28;20420;-80
2022/10/15 09:08:53;;;;;;;11.02;7.03;;;;;;;;;;5011997;28;20523;-80
2022/10/15 09:11:37;;;;;;;;;;;;;;;;;;5015086;28;20026;-80
2022/10/15 09:14:04;;;;;;;7.50;5.90;;;;;;;;;;5016969;28;19917;-80
2022/10/15 09:16:36;;;;;;;9.60;6.68;;;;;;;;;;5015778;28;20030;-80
2022/10/15 09:19:03;;;;;;;9.00;6.53;;;;;;;;;;5015405;28;20036;-80
2022/10/15 09:21:29;;;;;;;7.82;6.00;;;;;;;;;;4999069;28;20026;-81
2022/10/15 09:24:00;;;;;;;8.85;6.18;;;;;;;;;;4982835;28;20033;-81
2022/10/15 09:26:31;;;;;;;9.48;6.88;;;;;;;;;;4999006;28;20037;-81
2022/10/15 09:29:18;;;;;;;10.18;6.18;;;;;;;;;;5015343;28;20384;-80
2022/10/15 09:31:55;;;;;;;6.85;5.72;;;;;;;;;;5015286;28;20037;-80
2022/10/15 09:34:49;;;;;;;8.13;6.05;;;;;;;;;;5015665;28;20028;-80
2022/10/15 09:37:25;;;;;;;9.03;6.10;;;;;;;;;;5015108;28;20464;-80
2022/10/15 09:40:28;;;;;;;9.02;6.63;;;;;;;;;;5015313;28;20259;-80
2022/10/15 09:42:56;;;;;;;7.17;5.70;;;;;;;;;;5027538;28;20034;-80
2022/10/15 09:45:24;;;;;;;9.18;5.82;;;;;;;;;;5015957;28;20477;-80
2022/10/15 09:47:51;;;;;;;7.20;6.03;;;;;;;;;;4999007;28;20508;-80
2022/10/15 09:50:16;;;;;;;7.07;5.97;;;;;;;;;;5014972;28;20025;-80
2022/10/15 09:52:50;;;;;;;7.50;6.00;;;;;;;;;;5015596;28;20041;-80
2022/10/15 09:55:41;;;;;;;7.32;5.82;;;;;;;;;;5017475;28;20116;-81
2022/10/15 09:58:20;;;;;;;9.68;5.68;;;;;;;;;;5016247;28;20028;-81
2022/10/15 10:00:58;;;;;;;6.35;5.50;;;;;;;;;;5015830;28;20032;-80
2022/10/15 10:03:26;;;;;;;10.93;5.90;;;;;;;;;;5015978;28;20032;-81
2022/10/15 10:06:02;;;;;;;8.40;5.30;;;;;;;;;;4998972;28;20042;-80
2022/10/15 10:08:31;;;;;;;7.05;5.00;;;;;;;;;;5016638;28;20026;-80
2022/10/15 10:10:59;;;;;;;10.43;5.28;;;;;;;;;;5016589;28;20081;-82
2022/10/15 10:13:31;;;;;;;12.77;5.30;;;;;;;;;;5000459;28;20108;-80
2022/10/15 10:16:02;;;;;;;7.60;5.20;;;;;;;;;;5016888;28;20026;-80
2022/10/15 10:18:30;;;;;;;7.38;5.03;;;;;;;;;;4999704;28;20022;-80
2022/10/15 10:20:58;;;;;;;9.38;5.38;;;;;;;;;;5016320;28;20032;-80
2022/10/15 10:23:28;;;;;;;6.25;4.65;;;;;;;;;;5016496;28;20048;-81
2022/10/15 10:25:57;;;;;;;10.73;4.88;;;;;;;;;;4999155;28;20460;-80
2022/10/15 10:28:32;;;;;;;8.30;4.82;;;;;;;;;;4999744;28;20492;-81
2022/10/15 10:31:02;;;;;;;6.93;4.82;;;;;;;;;;5017158;28;20061;-81
2022/10/15 10:33:36;;;;;;;8.73;4.80;;;;;;;;;;4999165;28;20048;-80
2022/10/15 10:36:04;;;;;;;7.75;4.85;;;;;;;;;;5015347;28;20029;-80
2022/10/15 10:38:35;;;;;;;10.25;4.78;;;;;;;;;;5014706;28;20022;-80
2022/10/15 10:41:09;;;;;;;5.75;4.45;;;;;;;;;;5015712;28;20495;-80
2022/10/15 10:43:36;;;;;;;7.55;5.05;;;;;;;;;;5014253;28;20026;-79
2022/10/15 10:46:14;;;;;;;5.88;4.43;;;;;;;;;;5014157;28;20045;-80
2022/10/15 10:48:44;;;;;;;7.00;4.40;;;;;;;;;;5016054;28;20032;-79
2022/10/15 10:51:10;;;;;;;8.00;4.68;;;;;;;;;;5014795;28;20028;-82
2022/10/15 10:54:05;;;;;;;7.57;4.32;;;;;;;;;;5015440;28;20121;-82
2022/10/15 10:56:37;;;;;;;7.72;4.07;;;;;;;;;;4997781;28;20143;-83
2022/10/15 10:59:23;;;;;;;7.38;4.38;;;;;;;;;;5014783;28;20354;-79
2022/10/15 11:01:49;;;;;;;5.13;4.28;;;;;;;;;;5014535;28;20048;-81
2022/10/15 11:04:24;;;;;;;5.50;4.00;;;;;;;;;;4997381;28;20392;-81
2022/10/15 11:06:57;;;;;;;4.13;3.67;;;;;;;;;;4997359;28;20369;-80
2022/10/15 11:09:41;;;;;;;6.30;3.85;;;;;;;;;;4997684;28;20053;-80
2022/10/15 11:12:29;;;;;;;5.40;3.28;;;;;;;;;;4998278;28;20068;-80
2022/10/15 11:15:14;;;;;;;6.90;3.60;;;;;;;;;;5015351;28;20392;-80
2022/10/15 11:17:46;;;;;;;6.97;3.88;;;;;;;;;;5014095;28;20034;-79
2022/10/15 11:20:27;;;;;;;4.70;3.70;;;;;;;;;;5015625;28;20409;-81
2022/10/15 11:23:07;;;;;;;6.82;3.60;;;;;;;;;;5016543;28;20153;-81
2022/10/15 11:26:08;;;;;;;8.40;3.50;;;;;;;;;;5016093;28;20022;-80
2022/10/15 11:28:34;;;;;;;4.03;3.45;;;;;;;;;;5014154;28;20071;-81
2022/10/15 11:31:23;;;;;;;4.07;3.30;;;;;;;;;;5015654;28;20030;-80
2022/10/15 11:33:54;;;;;;;5.57;3.65;;;;;;;;;;5014914;28;20053;-80
2022/10/15 11:36:38;;;;;;;5.78;2.88;;;;;;;;;;5016430;28;20495;-81
2022/10/15 11:39:20;;;;;;;6.00;3.35;;;;;;;;;;5014052;28;20025;-80
2022/10/15 11:42:06;;;;;;;5.95;3.40;;;;;;;;;;5015457;28;20453;-81
2022/10/15 11:45:11;;;;;;;6.07;2.97;;;;;;;;;;5013830;28;20026;-81
2022/10/15 11:47:52;;;;;;;6.90;2.95;;;;;;;;;;4996817;28;20080;-81
2022/10/15 11:50:39;;;;;;;7.68;2.80;;;;;;;;;;5013710;28;20026;-81
2022/10/15 11:53:23;;;;;;;6.35;2.97;;;;;;;;;;5013966;28;20054;-81
2022/10/15 11:55:57;;;;;;;4.32;2.70;;;;;;;;;;5014222;28;20045;-81
2022/10/15 11:58:28;;;;;;;6.03;2.67;;;;;;;;;;5013180;28;20034;-82
2022/10/15 12:00:58;;;;;;;5.15;2.35;;;;;;;;;;5012971;28;20025;-82
2022/10/15 12:03:26;;;;;;;4.65;2.53;;;;;;;;;;5012616;28;20034;-82
2022/10/15 12:06:01;;;;;;;6.95;2.72;;;;;;;;;;4997073;28;20121;-82
2022/10/15 12:08:29;;;;;;;6.85;2.40;;;;;;;;;;4996376;28;20395;-81
2022/10/15 12:11:18;;;;;;;7.28;3.30;;;;;;;;;;5013004;28;20448;-82
2022/10/15 12:14:16;;;;;;;5.47;2.42;;;;;;;;;;5013186;28;20052;-82
2022/10/15 12:17:04;;;;;;;4.20;2.63;;;;;;;;;;5012672;28;20037;-86
2022/10/15 12:19:53;;;;;;;7.45;2.97;;;;;;;;;;5013916;28;20029;-84
2022/10/15 12:22:39;;;;;;;7.90;2.70;;;;;;;;;;5015114;28;20471;-84
2022/10/15 12:25:06;;;;;;;6.07;2.67;;;;;;;;;;5029370;28;20026;-83
2022/10/15 12:27:33;;;;;;;7.63;2.78;;;;;;;;;;5012523;28;20559;-83
2022/10/15 12:29:58;;;;;;;8.57;3.00;;;;;;;;;;5013762;28;20465;-82
2022/10/15 12:32:27;;;;;;;7.68;2.85;;;;;;;;;;5012333;28;20036;-82
2022/10/15 12:34:57;;;;;;;7.95;2.75;;;;;;;;;;4995903;28;20029;-82
2022/10/15 12:37:25;;;;;;;7.93;2.85;;;;;;;;;;5012637;28;20034;-82
2022/10/15 12:39:59;;;;;;;7.80;2.42;;;;;;;;;;5012285;28;20030;-82
2022/10/15 12:42:33;;;;;;;7.80;2.80;;;;;;;;;;5012696;28;20033;-82
2022/10/15 12:45:03;;;;;;;5.57;2.58;;;;;;;;;;5014280;28;20018;-83
2022/10/15 12:47:53;;;;;;;5.95;2.60;;;;;;;;;;5015759;28;20033;-82
2022/10/15 12:50:21;;;;;;;4.10;2.17;;;;;;;;;;4999908;28;20026;-82
2022/10/15 12:52:50;;;;;;;3.50;2.20;;;;;;;;;;5018237;28;20051;-82
2022/10/15 12:55:32;;;;;;;10.07;2.25;;;;;;;;;;5016269;28;20184;-82
2022/10/15 12:58:31;;;;;;;5.68;1.90;;;;;;;;;;5016160;28;20029;-82
2022/10/15 13:00:56;;;;;;;4.38;2.03;;;;;;;;;;5016285;28;20034;-82
2022/10/15 13:03:38;;;;;;;6.22;2.55;;;;;;;;;;5017153;28;20033;-82
2022/10/15 13:06:12;;;;;;;3.72;1.98;;;;;;;;;;5015694;28;20472;-82
2022/10/15 13:08:42;;;;;;;5.20;2.05;;;;;;;;;;5016803;28;20370;-83
2022/10/15 13:11:20;;;;;;;5.55;2.25;;;;;;;;;;5015812;28;20026;-82
2022/10/15 13:13:46;;;;;;;4.90;2.20;;;;;;;;;;4999218;28;20156;-82
2022/10/15 13:16:12;;;;;;;6.03;2.00;;;;;;;;;;5014934;28;20485;-81
2022/10/15 13:18:52;;;;;;;2.63;1.60;;;;;;;;;;4998466;28;20037;-81
2022/10/15 13:21:17;;;;;;;2.95;1.92;;;;;;;;;;5015876;28;20022;-82
2022/10/15 13:23:47;;;;;;;3.20;1.77;;;;;;;;;;5015884;28;20538;-82
2022/10/15 13:26:26;;;;;;;2.08;1.70;;;;;;;;;;5014728;28;20033;-82
2022/10/15 13:28:53;;;;;;;2.40;1.90;;;;;;;;;;5014645;28;20037;-82
2022/10/15 13:31:23;;;;;;;3.20;1.70;;;;;;;;;;5014425;28;20025;-82
2022/10/15 13:33:51;;;;;;;2.03;1.80;;;;;;;;;;5014565;28;20025;-81
2022/10/15 13:36:26;;;;;;;4.30;1.77;;;;;;;;;;4998197;28;20177;-81
2022/10/15 13:38:58;;;;;;;3.90;1.80;;;;;;;;;;5014445;28;20033;-81
2022/10/15 13:41:43;;;;;;;2.42;1.70;;;;;;;;;;5014352;28;20061;-79
2022/10/15 13:44:20;;;;;;;2.65;1.85;;;;;;;;;;5014206;28;20168;-80
2022/10/15 13:46:45;;;;;;;3.90;2.30;;;;;;;;;;5014354;28;20432;-80
2022/10/15 13:49:12;;;;;;;4.72;1.63;;;;;;;;;;5015700;28;20033;-80
2022/10/15 13:51:40;;;;;;;5.53;1.70;;;;;;;;;;4998486;28;20022;-80
2022/10/15 13:54:11;;;;;;;1.80;1.70;;;;;;;;;;5014853;28;20046;-80
2022/10/15 13:56:41;;;;;;;3.33;2.00;;;;;;;;;;4998277;28;20032;-80
2022/10/15 13:59:16;;;;;;;3.00;1.77;;;;;;;;;;5015002;28;20415;-80
2022/10/15 14:01:47;;;;;;;3.15;1.80;;;;;;;;;;5014778;28;20064;-82
2022/10/15 14:04:15;;;;;;;6.70;1.88;;;;;;;;;;5016106;28;20040;-82
2022/10/15 14:06:42;;;;;;;3.25;1.85;;;;;;;;;;5014654;28;20022;-80
2022/10/15 14:09:32;;;;;;;3.17;1.80;;;;;;;;;;5014777;28;20030;-82
2022/10/15 14:11:58;;;;;;;4.25;1.67;;;;;;;;;;5012200;28;20033;-82
2022/10/15 14:14:32;;;;;;;2.20;1.80;;;;;;;;;;4981913;28;20030;-81
2022/10/15 14:16:59;;;;;;;2.28;1.70;;;;;;;;;;5014469;28;20026;-80
2022/10/15 14:19:28;;;;;;;6.35;1.88;;;;;;;;;;5014572;28;20026;-81
2022/10/15 14:21:57;;;;;;;7.00;1.92;;;;;;;;;;5014327;28;20380;-81
2022/10/15 14:24:28;;;;;;;7.95;2.50;;;;;;;;;;5014459;28;20030;-82
2022/10/15 14:26:53;;;;;;;4.70;1.98;;;;;;;;;;4997766;28;20022;-82
2022/10/15 14:29:27;;;;;;;4.55;2.05;;;;;;;;;;5014345;28;20042;-82
2022/10/15 14:31:52;;;;;;;4.57;2.10;;;;;;;;;;5014822;28;20041;-81
2022/10/15 14:34:44;;;;;;;5.47;2.10;;;;;;;;;;5015150;28;20038;-81
2022/10/15 14:37:34;;;;;;;3.63;2.05;;;;;;;;;;5012695;28;20034;-82
2022/10/15 14:40:12;;;;;;;2.95;1.77;;;;;;;;;;5015141;28;20018;-82
2022/10/15 14:43:12;;;;;;;5.15;2.00;;;;;;;;;;5015340;28;20030;-81
2022/10/15 14:45:41;;;;;;;2.20;1.90;;;;;;;;;;4993845;28;20471;-82
2022/10/15 14:48:10;;;;;;;3.33;1.73;;;;;;;;;;5013803;28;20548;-82
2022/10/15 14:50:40;;;;;;;2.80;1.83;;;;;;;;;;5013846;28;20033;-82
2022/10/15 14:53:10;;;;;;;2.20;1.80;;;;;;;;;;5013444;28;20504;-82
2022/10/15 14:55:39;;;;;;;2.35;2.00;;;;;;;;;;5013657;28;20140;-82
2022/10/15 14:58:10;;;;;;;1.85;1.45;;;;;;;;;;5014514;28;20052;-81